Time;durP1;ratioP1;P1;durP2;ratioP2;P2;SDS_P1;SDS_P2;PMS_P1;PMS_P2;Temp;Humidity;BMP_temperature;BMP_pressure;BME280_temperature;BME280_humidity;BME280_pressure;Samples;Min_cycle;Max_cycle;Signal;HPM_P1;HPM_P2
2022/01/05 00:01:58;;;;;;;21.82;12.50;;;;;;;7.17;95.19;96212.09;1737045;82;21059;-58
2022/01/05 00:04:25;;;;;;;9.85;6.72;;;;;;;7.05;95.04;96212.61;1737088;82;21068;-57
2022/01/05 00:06:52;;;;;;;8.50;5.87;;;;;;;7.02;95.09;96218.61;1736935;82;21004;-58
2022/01/05 00:09:20;;;;;;;8.98;5.95;;;;;;;6.98;95.34;96219.49;1736909;82;38763;-58
2022/01/05 00:11:47;;;;;;;7.80;5.28;;;;;;;6.97;95.71;96225.43;1732525;82;21068;-58
2022/01/05 00:14:14;;;;;;;6.45;4.65;;;;;;;6.88;95.79;96236.65;1736970;82;21621;-58
2022/01/05 00:16:41;;;;;;;6.58;4.97;;;;;;;6.84;95.98;96235.66;1724913;82;21038;-58
2022/01/05 00:19:07;;;;;;;7.92;5.12;;;;;;;6.86;95.78;96234.81;1712636;83;21018;-58
2022/01/05 00:21:34;;;;;;;6.60;4.45;;;;;;;6.92;95.25;96233.63;1718125;82;21020;-58
2022/01/05 00:24:01;;;;;;;8.85;5.85;;;;;;;6.93;94.50;96223.66;1707724;84;21009;-58
2022/01/05 00:26:28;;;;;;;10.23;6.65;;;;;;;6.97;94.13;96230.02;1714219;82;21395;-58
2022/01/05 00:28:55;;;;;;;12.37;7.47;;;;;;;6.93;94.68;96250.03;1737268;82;21021;-58
2022/01/05 00:31:22;;;;;;;8.03;4.75;;;;;;;6.88;94.64;96246.62;1727856;82;21235;-58
2022/01/05 00:33:50;;;;;;;9.68;5.97;;;;;;;6.91;93.84;96252.75;1712507;83;21523;-58
2022/01/05 00:36:17;;;;;;;8.15;5.15;;;;;;;6.89;93.67;96261.13;1715611;82;20979;-58
2022/01/05 00:38:45;;;;;;;8.23;4.78;;;;;;;6.79;92.93;96255.39;1737178;82;21989;-58
2022/01/05 00:41:12;;;;;;;6.30;4.12;;;;;;;6.90;92.35;96253.84;1736879;82;21367;-58
2022/01/05 00:43:39;;;;;;;4.80;3.30;;;;;;;6.81;92.27;96248.91;1737239;82;21783;-58
2022/01/05 00:46:06;;;;;;;5.22;3.90;;;;;;;6.83;90.96;96259.62;1736857;82;21422;-58
2022/01/05 00:48:34;;;;;;;9.80;6.42;;;;;;;6.95;90.98;96261.84;1720320;82;21437;-58
2022/01/05 00:51:05;;;;;;;9.43;6.15;;;;;;;7.02;91.02;96265.73;1704532;82;21674;-58
2022/01/05 00:53:33;;;;;;;7.35;4.85;;;;;;;7.10;90.85;96270.98;1712415;82;21458;-58
2022/01/05 00:56:00;;;;;;;7.75;4.65;;;;;;;7.13;90.66;96270.37;1717340;82;21015;-58
2022/01/05 00:58:27;;;;;;;6.60;4.17;;;;;;;7.03;90.33;96259.25;1736858;82;20992;-59
2022/01/05 01:00:54;;;;;;;7.70;4.50;;;;;;;7.15;90.40;96280.29;1716884;82;21080;-58
2022/01/05 01:03:21;;;;;;;12.88;6.03;;;;;;;7.22;90.33;96281.23;1712231;82;21456;-58
2022/01/05 01:05:48;;;;;;;14.30;8.03;;;;;;;7.24;90.07;96275.80;1719924;80;20993;-58
2022/01/05 01:08:15;;;;;;;9.38;6.95;;;;;;;7.17;89.74;96279.43;1736070;82;21055;-58
2022/01/05 01:10:42;;;;;;;12.28;6.90;;;;;;;7.12;89.51;96281.45;1737185;82;22070;-58
2022/01/05 01:13:09;;;;;;;13.48;8.58;;;;;;;7.05;89.67;96273.76;1711029;82;21004;-58
2022/01/05 01:15:35;;;;;;;23.12;13.28;;;;;;;7.00;89.97;96276.53;1707943;82;21429;-58
2022/01/05 01:18:02;;;;;;;7.58;5.00;;;;;;;6.92;89.87;96289.34;1730555;81;21017;-58
2022/01/05 01:20:29;;;;;;;18.32;8.30;;;;;;;6.94;89.98;96289.87;1736949;82;21508;-58
2022/01/05 01:22:57;;;;;;;6.83;3.22;;;;;;;6.87;89.47;96290.80;1707503;84;21064;-58
2022/01/05 01:25:24;;;;;;;10.13;6.50;;;;;;;6.81;89.49;96306.79;1707769;84;21016;-58
2022/01/05 01:27:51;;;;;;;11.55;5.30;;;;;;;6.84;89.57;96307.56;1698049;84;21281;-58
2022/01/05 01:30:18;;;;;;;5.97;4.12;;;;;;;6.85;89.01;96292.45;1737090;82;20980;-59
2022/01/05 01:32:44;;;;;;;4.95;2.65;;;;;;;6.78;89.14;96292.03;1737045;82;20989;-58
2022/01/05 01:35:11;;;;;;;5.30;2.90;;;;;;;6.74;88.99;96295.05;1737058;82;21370;-58
2022/01/05 01:37:38;;;;;;;4.65;3.80;;;;;;;6.67;88.93;96292.77;1737039;82;21484;-58
2022/01/05 01:40:08;;;;;;;3.40;1.90;;;;;;;6.62;88.88;96292.05;1737023;82;21398;-58
2022/01/05 01:42:35;;;;;;;5.83;3.87;;;;;;;6.61;88.98;96292.60;1737086;82;21024;-58
2022/01/05 01:45:03;;;;;;;7.10;4.83;;;;;;;6.55;88.70;96287.59;1737149;82;20990;-58
2022/01/05 01:47:30;;;;;;;25.95;11.85;;;;;;;6.57;89.09;96281.36;1733040;82;21548;-58
2022/01/05 01:49:57;;;;;;;4.70;3.30;;;;;;;6.57;89.86;96284.85;1707675;83;21528;-58
2022/01/05 01:52:24;;;;;;;4.55;3.02;;;;;;;6.64;89.40;96300.62;1715488;82;21435;-57
2022/01/05 01:54:51;;;;;;;21.50;10.80;;;;;;;6.71;89.36;96309.12;1712502;83;21051;-57
2022/01/05 01:57:21;;;;;;;7.70;4.60;;;;;;;6.78;89.17;96307.64;1730623;82;21071;-57
2022/01/05 01:59:48;;;;;;;8.20;5.00;;;;;;;6.68;88.87;96297.61;1737202;82;21468;-58
2022/01/05 02:02:16;;;;;;;12.33;6.50;;;;;;;6.54;88.86;96281.42;1724014;82;21472;-57
2022/01/05 02:04:45;;;;;;;9.65;6.42;;;;;;;6.44;88.85;96281.05;1712653;83;21396;-58
2022/01/05 02:07:11;;;;;;;9.27;5.97;;;;;;;6.45;90.14;96285.33;1712970;82;21007;-57
2022/01/05 02:09:40;;;;;;;8.83;5.83;;;;;;;6.50;89.76;96300.06;1712666;83;21565;-58
2022/01/05 02:12:09;;;;;;;10.48;5.80;;;;;;;6.58;89.72;96303.14;1702572;83;21264;-58
2022/01/05 02:14:35;;;;;;;7.37;4.20;;;;;;;6.65;89.74;96316.47;1710634;83;21457;-57
2022/01/05 02:17:08;;;;;;;10.50;4.55;;;;;;;6.71;89.67;96313.16;1719619;80;21442;-57
2022/01/05 02:19:32;;;;;;;30.37;24.10;;;;;;;6.74;89.39;96312.00;1736712;82;21022;-58
2022/01/05 02:21:59;;;;;;;13.72;9.65;;;;;;;6.75;89.36;96319.53;1721847;82;21125;-58
2022/01/05 02:24:25;;;;;;;5.40;3.72;;;;;;;6.75;89.24;96320.88;1712617;83;20987;-58
2022/01/05 02:26:52;;;;;;;2.75;1.90;;;;;;;6.76;89.27;96344.84;1721873;82;21059;-58
2022/01/05 02:29:21;;;;;;;16.65;7.30;;;;;;;6.78;89.16;96345.33;1736926;82;21018;-57
2022/01/05 02:31:48;;;;;;;35.20;13.20;;;;;;;6.74;89.05;96340.27;1724277;82;20994;-58
2022/01/05 02:34:16;;;;;;;11.63;5.90;;;;;;;6.64;89.02;96328.88;1712483;83;21046;-57
2022/01/05 02:36:43;;;;;;;7.58;5.35;;;;;;;6.52;89.22;96315.91;1717173;82;21010;-58
2022/01/05 02:39:10;;;;;;;8.20;5.00;;;;;;;6.42;89.47;96318.22;1712562;83;21322;-58
2022/01/05 02:41:36;;;;;;;27.62;12.82;;;;;;;6.34;89.46;96332.89;1723314;82;22087;-58
2022/01/05 02:44:04;;;;;;;10.53;7.33;;;;;;;6.30;89.74;96327.82;1736948;82;21410;-58
2022/01/05 02:46:32;;;;;;;5.70;4.22;;;;;;;6.31;91.05;96317.31;1736774;82;21469;-58
2022/01/05 02:48:59;;;;;;;6.97;5.67;;;;;;;6.33;91.27;96323.22;1714953;82;20988;-58
2022/01/05 02:51:26;;;;;;;11.80;7.30;;;;;;;6.31;92.06;96322.14;1705083;82;21427;-57
2022/01/05 02:53:53;;;;;;;12.05;8.13;;;;;;;6.35;91.51;96325.06;1712353;83;20978;-58
2022/01/05 02:56:20;;;;;;;6.67;5.60;;;;;;;6.36;91.78;96319.38;1712356;82;20998;-58
2022/01/05 02:58:47;;;;;;;5.78;4.50;;;;;;;6.35;90.69;96304.89;1712525;83;20971;-58
2022/01/05 03:01:14;;;;;;;7.90;5.55;;;;;;;6.32;90.36;96307.59;1717429;82;21045;-58
2022/01/05 03:03:41;;;;;;;8.50;6.12;;;;;;;6.28;90.39;96309.29;1712454;82;21010;-57
2022/01/05 03:06:08;;;;;;;8.33;4.97;;;;;;;6.30;90.47;96300.92;1712105;82;21447;-58
2022/01/05 03:08:35;;;;;;;25.82;10.75;;;;;;;6.29;91.09;96300.12;1712374;83;21026;-57
2022/01/05 03:11:01;;;;;;;16.82;7.58;;;;;;;6.20;91.00;96298.65;1717257;82;21027;-58
2022/01/05 03:13:28;;;;;;;10.45;5.53;;;;;;;6.21;91.57;96290.83;1712494;83;21006;-58
2022/01/05 03:15:56;;;;;;;7.92;5.05;;;;;;;6.31;91.67;96293.10;1712237;82;21454;-57
2022/01/05 03:18:23;;;;;;;7.40;4.35;;;;;;;6.38;91.92;96295.67;1708200;82;21595;-57
2022/01/05 03:20:50;;;;;;;6.33;4.08;;;;;;;6.47;91.34;96297.14;1711305;82;21451;-58
2022/01/05 03:23:17;;;;;;;6.40;3.52;;;;;;;6.46;91.19;96282.89;1737052;82;20989;-58
2022/01/05 03:25:44;;;;;;;6.70;4.50;;;;;;;6.39;90.97;96277.63;1734359;82;20977;-58
2022/01/05 03:28:11;;;;;;;19.45;10.03;;;;;;;6.28;91.05;96268.14;1712444;82;21066;-58
2022/01/05 03:30:38;;;;;;;20.88;8.73;;;;;;;6.18;91.10;96265.87;1712870;82;21414;-58
2022/01/05 03:33:20;;;;;;;9.68;5.83;;;;;;;6.17;91.33;96259.45;1712494;82;20998;-58
2022/01/05 03:35:45;;;;;;;9.30;5.95;;;;;;;6.11;91.31;96252.00;1712894;82;21392;-58
2022/01/05 03:38:15;;;;;;;8.65;5.70;;;;;;;6.17;91.46;96263.48;1712643;82;20983;-58
2022/01/05 03:40:43;;;;;;;7.17;5.47;;;;;;;6.24;91.35;96254.50;1712374;82;21470;-58
2022/01/05 03:43:11;;;;;;;8.08;4.30;;;;;;;6.21;91.19;96257.75;1712681;82;21612;-58
2022/01/05 03:45:39;;;;;;;8.53;5.37;;;;;;;6.19;91.32;96249.98;1712611;82;21015;-59
2022/01/05 03:48:08;;;;;;;5.95;5.35;;;;;;;6.10;92.01;96232.92;1723153;82;20996;-58
2022/01/05 03:50:35;;;;;;;5.12;2.77;;;;;;;6.14;92.02;96213.75;1709031;82;21000;-58
2022/01/05 03:53:04;;;;;;;5.33;2.52;;;;;;;6.10;91.36;96221.37;1737104;82;21063;-58
2022/01/05 03:55:32;;;;;;;5.95;3.05;;;;;;;6.05;91.48;96220.09;1714618;82;21429;-58
2022/01/05 03:58:00;;;;;;;5.83;3.58;;;;;;;6.01;91.69;96217.21;1733301;82;21461;-58
2022/01/05 04:00:29;;;;;;;10.93;4.80;;;;;;;6.02;92.39;96227.42;1736563;82;21024;-58
2022/01/05 04:02:58;;;;;;;11.55;7.70;;;;;;;6.07;92.06;96256.93;1732342;82;21472;-58
2022/01/05 04:05:25;;;;;;;13.67;8.17;;;;;;;6.14;91.88;96270.77;1737420;82;20996;-58
2022/01/05 04:07:52;;;;;;;14.63;8.98;;;;;;;6.20;91.95;96269.06;1737175;82;22089;-58
2022/01/05 04:10:19;;;;;;;10.60;5.65;;;;;;;6.21;91.43;96244.30;1737444;82;21504;-58
2022/01/05 04:12:47;;;;;;;7.78;4.92;;;;;;;6.11;91.27;96227.80;1714341;82;21010;-58
2022/01/05 04:15:15;;;;;;;15.70;7.50;;;;;;;5.96;91.25;96220.52;1712716;82;21515;-58
2022/01/05 04:17:42;;;;;;;18.15;9.20;;;;;;;5.83;91.17;96222.84;1712523;82;21018;-58
2022/01/05 04:20:11;;;;;;;17.55;7.75;;;;;;;5.78;91.43;96245.75;1712630;82;22027;-58
2022/01/05 04:22:38;;;;;;;20.43;8.40;;;;;;;5.81;91.67;96251.08;1712840;82;21082;-58
2022/01/05 04:25:06;;;;;;;16.55;7.85;;;;;;;5.85;91.85;96269.59;1712444;83;20995;-58
2022/01/05 04:27:33;;;;;;;9.28;5.70;;;;;;;5.94;91.71;96265.17;1712433;82;21554;-57
2022/01/05 04:30:00;;;;;;;11.80;6.42;;;;;;;5.96;91.93;96276.98;1712249;82;21039;-58
2022/01/05 04:32:27;;;;;;;15.60;8.78;;;;;;;5.97;92.15;96285.30;1732004;82;21315;-58
2022/01/05 04:34:54;;;;;;;13.65;6.20;;;;;;;5.96;93.00;96276.43;1736982;82;21067;-58
2022/01/05 04:37:22;;;;;;;11.33;5.33;;;;;;;5.94;93.86;96271.90;1737262;82;21063;-58
2022/01/05 04:39:50;;;;;;;9.60;6.70;;;;;;;5.96;92.91;96283.70;1737239;82;21021;-58
2022/01/05 04:42:17;;;;;;;15.50;8.43;;;;;;;5.96;92.47;96305.20;1737202;82;21054;-58
2022/01/05 04:44:44;;;;;;;12.05;6.70;;;;;;;6.00;92.35;96306.23;1737104;82;21001;-58
2022/01/05 04:47:12;;;;;;;11.97;6.97;;;;;;;6.03;92.46;96306.98;1725049;82;20956;-58
2022/01/05 04:49:39;;;;;;;15.55;8.83;;;;;;;6.00;93.21;96298.17;1773637;80;21191;-58
2022/01/05 04:52:07;;;;;;;12.13;8.23;;;;;;;5.94;93.46;96290.72;1723563;80;21047;-57
2022/01/05 04:54:33;;;;;;;10.18;7.20;;;;;;;5.94;93.17;96288.83;1712566;83;21023;-57
2022/01/05 04:57:00;;;;;;;11.48;6.80;;;;;;;5.95;92.39;96293.66;1712671;82;21385;-58
2022/01/05 04:59:27;;;;;;;9.40;6.67;;;;;;;5.93;92.54;96289.92;1712373;83;21003;-58
2022/01/05 05:01:54;;;;;;;16.77;9.85;;;;;;;5.89;93.16;96294.78;1718120;80;21488;-58
2022/01/05 05:04:22;;;;;;;15.23;12.33;;;;;;;5.86;93.74;96299.41;1713185;82;21070;-58
2022/01/05 05:06:49;;;;;;;11.28;8.15;;;;;;;5.80;93.51;96303.25;1712680;82;21023;-58
2022/01/05 05:09:17;;;;;;;8.90;5.85;;;;;;;5.78;93.18;96303.55;1712543;82;21424;-58
2022/01/05 05:11:44;;;;;;;9.05;5.53;;;;;;;5.74;93.37;96296.37;1725342;82;21028;-58
2022/01/05 05:14:11;;;;;;;7.35;4.22;;;;;;;5.75;92.84;96293.38;1737087;82;21060;-58
2022/01/05 05:16:38;;;;;;;7.97;4.03;;;;;;;5.79;92.50;96308.38;1725525;82;21003;-58
2022/01/05 05:19:05;;;;;;;8.88;5.87;;;;;;;5.79;92.23;96305.69;1712780;83;20971;-58
2022/01/05 05:21:32;;;;;;;11.90;7.45;;;;;;;5.83;92.32;96310.20;1712446;82;22038;-58
2022/01/05 05:23:59;;;;;;;31.17;19.05;;;;;;;5.89;92.31;96314.39;1712477;83;21530;-58
2022/01/05 05:26:26;;;;;;;20.43;13.32;;;;;;;5.92;92.08;96312.52;1712295;82;21014;-58
2022/01/05 05:28:53;;;;;;;21.40;15.80;;;;;;;5.94;91.97;96311.68;1712603;83;20992;-58
2022/01/05 05:31:19;;;;;;;19.60;12.05;;;;;;;5.98;91.91;96315.12;1720818;82;21004;-58
2022/01/05 05:33:46;;;;;;;17.55;11.85;;;;;;;6.00;91.77;96304.34;1737122;82;22093;-58
2022/01/05 05:36:13;;;;;;;16.97;12.00;;;;;;;5.99;91.50;96304.64;1729791;82;21475;-58
2022/01/05 05:38:43;;;;;;;14.23;9.75;;;;;;;5.93;91.54;96306.59;1728856;81;20992;-58
2022/01/05 05:41:10;;;;;;;20.17;12.13;;;;;;;5.89;91.75;96308.22;1722493;82;21019;-58
2022/01/05 05:43:37;;;;;;;37.95;18.73;;;;;;;5.84;92.08;96313.14;1712680;83;20987;-57
2022/01/05 05:46:04;;;;;;;42.58;22.02;;;;;;;5.80;91.63;96309.42;1718011;80;22149;-58
2022/01/05 05:48:31;;;;;;;35.52;18.75;;;;;;;5.75;91.42;96313.54;1745966;80;21002;-58
2022/01/05 05:50:58;;;;;;;46.63;24.60;;;;;;;5.66;91.39;96320.66;1755098;80;21567;-58
2022/01/05 05:53:25;;;;;;;68.90;33.98;;;;;;;5.62;91.51;96321.76;1712469;83;20999;-58
2022/01/05 05:55:52;;;;;;;70.15;32.83;;;;;;;5.57;92.30;96329.11;1712913;82;21018;-58
2022/01/05 05:58:19;;;;;;;54.15;29.95;;;;;;;5.56;92.51;96324.27;1715443;82;21320;-58
2022/01/05 06:00:45;;;;;;;33.15;17.98;;;;;;;5.55;92.89;96324.54;1710231;82;21001;-58
2022/01/05 06:03:13;;;;;;;36.23;17.37;;;;;;;5.54;91.97;96322.95;1714189;82;21026;-58
2022/01/05 06:05:40;;;;;;;54.10;23.98;;;;;;;5.50;92.07;96317.91;1714855;82;21080;-58
2022/01/05 06:08:08;;;;;;;55.28;24.10;;;;;;;5.46;91.88;96323.03;1702366;82;21481;-58
2022/01/05 06:10:35;;;;;;;49.10;22.20;;;;;;;5.48;91.96;96337.55;1729519;82;20977;-58
2022/01/05 06:13:02;;;;;;;23.55;12.43;;;;;;;5.51;92.26;96335.08;1737110;82;21481;-58
2022/01/05 06:15:29;;;;;;;23.10;11.48;;;;;;;5.50;94.19;96330.00;1708070;82;21497;-58
2022/01/05 06:17:56;;;;;;;33.65;17.15;;;;;;;5.51;93.57;96323.53;1732794;82;21076;-55
2022/01/05 06:20:23;;;;;;;27.37;13.08;;;;;;;5.54;93.30;96327.77;1737285;82;20985;-55
2022/01/05 06:22:50;;;;;;;29.80;15.85;;;;;;;5.54;92.51;96335.83;1729862;82;21468;-56
2022/01/05 06:25:16;;;;;;;31.52;13.18;;;;;;;5.55;92.41;96321.85;1708671;82;20976;-56
2022/01/05 06:27:44;;;;;;;23.98;14.40;;;;;;;5.52;92.43;96317.06;1699007;82;21060;-56
2022/01/05 06:30:12;;;;;;;25.75;14.83;;;;;;;5.50;92.43;96318.70;1690413;84;20999;-57
2022/01/05 06:32:45;;;;;;;27.10;14.40;;;;;;;5.47;92.38;96313.09;1733003;82;21071;-57
2022/01/05 06:35:16;;;;;;;29.67;13.15;;;;;;;5.46;93.58;96319.55;1732609;82;21835;-57
2022/01/05 06:37:43;;;;;;;24.47;11.40;;;;;;;5.45;94.21;96321.98;1737055;82;20993;-56
2022/01/05 06:40:10;;;;;;;25.45;16.17;;;;;;;5.44;94.14;96323.88;1708151;82;21056;-57
2022/01/05 06:42:37;;;;;;;35.25;14.55;;;;;;;5.44;93.05;96322.53;1729008;82;21083;-57
2022/01/05 06:45:06;;;;;;;25.52;15.68;;;;;;;5.43;92.81;96333.02;1737133;82;21008;-57
2022/01/05 06:47:33;;;;;;;29.45;15.90;;;;;;;5.45;92.98;96333.53;1716454;82;21874;-56
2022/01/05 06:50:00;;;;;;;26.80;14.75;;;;;;;5.41;93.33;96338.44;1735857;82;21465;-57
2022/01/05 06:52:26;;;;;;;31.40;17.95;;;;;;;5.42;93.10;96340.83;1710358;82;21020;-57
2022/01/05 06:54:53;;;;;;;30.10;18.95;;;;;;;5.48;92.97;96338.89;1728485;82;21009;-57
2022/01/05 06:57:20;;;;;;;30.48;18.85;;;;;;;5.50;92.89;96345.57;1717093;82;21008;-57
2022/01/05 06:59:47;;;;;;;27.13;16.10;;;;;;;5.52;92.78;96343.39;1707466;83;21399;-57
2022/01/05 07:02:14;;;;;;;23.42;16.02;;;;;;;5.56;93.01;96343.08;1723951;82;21037;-57
2022/01/05 07:04:41;;;;;;;26.33;15.98;;;;;;;5.53;92.85;96343.64;1724496;82;21052;-57
2022/01/05 07:07:08;;;;;;;28.73;16.02;;;;;;;5.54;92.83;96341.75;1715591;82;21514;-56
2022/01/05 07:09:35;;;;;;;29.90;18.25;;;;;;;5.53;92.77;96344.19;1714979;82;21004;-56
2022/01/05 07:12:03;;;;;;;25.35;15.08;;;;;;;5.55;92.73;96350.06;1662557;85;21314;-57
2022/01/05 07:14:29;;;;;;;22.80;17.40;;;;;;;5.55;93.09;96353.55;1727291;82;21003;-56
2022/01/05 07:16:56;;;;;;;17.45;12.20;;;;;;;5.56;92.66;96356.52;1706957;82;21501;-56
2022/01/05 07:19:23;;;;;;;14.13;9.88;;;;;;;5.59;92.53;96359.96;1712325;82;20991;-57
2022/01/05 07:21:50;;;;;;;33.10;18.50;;;;;;;5.59;92.47;96363.20;1721806;82;21008;-57
2022/01/05 07:24:19;;;;;;;44.90;25.50;;;;;;;5.59;92.36;96365.34;1728263;82;21347;-56
2022/01/05 07:26:47;;;;;;;28.05;16.77;;;;;;;5.59;92.28;96357.28;1735710;82;20969;-57
2022/01/05 07:29:15;;;;;;;25.20;13.57;;;;;;;5.61;92.26;96355.09;1716212;82;21075;-56
2022/01/05 07:31:42;;;;;;;26.23;15.75;;;;;;;5.62;92.29;96352.66;1711061;82;21095;-57
2022/01/05 07:34:09;;;;;;;30.72;18.77;;;;;;;5.60;92.37;96353.50;1731210;82;21048;-57
2022/01/05 07:36:36;;;;;;;34.18;21.50;;;;;;;5.57;93.28;96354.62;1736973;82;21384;-56
2022/01/05 07:39:05;;;;;;;43.52;27.25;;;;;;;5.52;93.54;96351.45;1724158;82;21048;-57
2022/01/05 07:41:33;;;;;;;31.25;19.73;;;;;;;5.49;93.86;96345.86;1715090;82;21019;-57
2022/01/05 07:44:00;;;;;;;25.57;15.70;;;;;;;5.47;93.05;96352.88;1719341;82;21013;-56
2022/01/05 07:46:26;;;;;;;22.95;13.13;;;;;;;5.43;93.20;96343.77;1721940;82;21063;-56
2022/01/05 07:48:53;;;;;;;22.87;14.55;;;;;;;5.38;92.58;96336.59;1721198;82;21302;-57
2022/01/05 07:51:20;;;;;;;32.65;21.50;;;;;;;5.36;92.90;96338.73;1716359;82;21004;-57
2022/01/05 07:53:47;;;;;;;27.37;17.27;;;;;;;5.34;92.85;96339.58;1729331;82;21001;-57
2022/01/05 07:56:14;;;;;;;27.30;18.37;;;;;;;5.32;93.19;96333.70;1718773;82;20996;-56
2022/01/05 07:58:41;;;;;;;34.92;24.75;;;;;;;5.35;93.23;96337.69;1716895;82;21441;-57
2022/01/05 08:01:08;;;;;;;23.95;16.15;;;;;;;5.38;92.92;96333.91;1718148;82;21067;-56
2022/01/05 08:03:37;;;;;;;23.00;16.00;;;;;;;5.38;93.19;96329.88;1718550;82;21025;-56
2022/01/05 08:06:04;;;;;;;21.52;13.98;;;;;;;5.40;92.93;96328.78;1728492;82;27923;-57
2022/01/05 08:08:31;;;;;;;20.30;12.65;;;;;;;5.41;92.84;96320.98;1713017;82;21430;-57
2022/01/05 08:10:58;;;;;;;25.50;15.25;;;;;;;5.43;92.88;96321.48;1725970;82;21413;-56
2022/01/05 08:13:25;;;;;;;25.50;15.08;;;;;;;5.39;93.60;96322.61;1712417;82;21029;-57
2022/01/05 08:15:52;;;;;;;19.92;12.65;;;;;;;5.41;93.22;96319.63;1705118;82;20986;-57
2022/01/05 08:18:19;;;;;;;19.82;13.90;;;;;;;5.40;93.07;96328.23;1701710;82;20977;-56
2022/01/05 08:20:46;;;;;;;23.05;15.38;;;;;;;5.36;92.83;96327.99;1707810;82;21524;-56
2022/01/05 08:23:18;;;;;;;27.67;16.32;;;;;;;5.35;93.08;96334.45;1712159;82;21062;-56
2022/01/05 08:25:45;;;;;;;31.42;21.97;;;;;;;5.35;93.21;96336.34;1708028;82;21467;-56
2022/01/05 08:28:12;;;;;;;33.88;23.87;;;;;;;5.33;94.29;96334.50;1718258;82;21076;-56
2022/01/05 08:30:39;;;;;;;33.28;19.60;;;;;;;5.32;94.71;96340.41;1715310;82;21437;-55
2022/01/05 08:33:07;;;;;;;45.52;22.25;;;;;;;5.30;93.48;96338.56;1709087;82;21492;-57
2022/01/05 08:35:34;;;;;;;31.30;18.60;;;;;;;5.30;93.35;96345.82;1697249;82;21423;-57
2022/01/05 08:38:01;;;;;;;68.72;33.08;;;;;;;5.32;94.10;96342.30;1715160;82;22064;-57
2022/01/05 08:40:28;;;;;;;40.50;22.58;;;;;;;5.33;93.70;96339.32;1712023;82;21055;-57
2022/01/05 08:42:56;;;;;;;33.55;18.30;;;;;;;5.34;93.72;96338.78;1721743;82;21067;-56
2022/01/05 08:45:22;;;;;;;28.38;15.98;;;;;;;5.32;94.04;96343.09;1710497;82;21004;-56
2022/01/05 08:47:52;;;;;;;25.90;18.23;;;;;;;5.33;93.95;96337.98;1720970;82;21137;-56
2022/01/05 08:50:22;;;;;;;23.80;15.90;;;;;;;5.31;93.84;96336.13;1710015;82;21584;-56
2022/01/05 08:52:49;;;;;;;19.48;11.53;;;;;;;5.32;93.81;96331.02;1704996;82;21013;-56
2022/01/05 08:55:18;;;;;;;47.35;30.15;;;;;;;5.33;93.42;96343.34;1719690;82;21036;-56
2022/01/05 08:57:46;;;;;;;36.50;26.45;;;;;;;5.37;93.49;96344.91;1711191;82;20988;-57
2022/01/05 09:00:14;;;;;;;42.88;25.88;;;;;;;5.35;93.44;96357.28;1717482;82;21012;-57
2022/01/05 09:02:41;;;;;;;49.90;28.12;;;;;;;5.34;93.62;96366.98;1719177;82;22040;-57
2022/01/05 09:05:08;;;;;;;51.00;28.27;;;;;;;5.38;93.64;96377.39;1713546;82;21016;-56
2022/01/05 09:07:35;;;;;;;47.20;29.42;;;;;;;5.41;93.51;96376.05;1706128;82;21032;-56
2022/01/05 09:10:05;;;;;;;47.70;28.77;;;;;;;5.44;93.51;96378.95;1716708;82;21481;-56
2022/01/05 09:12:32;;;;;;;45.35;27.32;;;;;;;5.47;93.39;96373.53;1718684;82;21437;-57
2022/01/05 09:14:59;;;;;;;23.75;15.98;;;;;;;5.51;93.34;96375.38;1723059;82;22132;-57
2022/01/05 09:17:27;;;;;;;20.15;15.28;;;;;;;5.54;93.32;96384.74;1719197;82;21060;-56
2022/01/05 09:19:54;;;;;;;19.27;12.70;;;;;;;5.56;93.22;96396.03;1707351;82;21012;-57
2022/01/05 09:22:21;;;;;;;22.13;13.35;;;;;;;5.59;93.12;96398.13;1712235;82;20984;-56
2022/01/05 09:24:50;;;;;;;24.23;16.30;;;;;;;5.57;92.87;96393.05;1721983;82;21056;-56
2022/01/05 09:27:17;;;;;;;21.00;15.00;;;;;;;5.56;92.89;96391.45;1717678;82;21377;-57
2022/01/05 09:29:44;;;;;;;19.02;11.88;;;;;;;5.57;92.85;96401.65;1721496;82;21756;-57
2022/01/05 09:32:11;;;;;;;23.40;14.43;;;;;;;5.57;92.84;96403.80;1711106;82;21038;-57
2022/01/05 09:34:42;;;;;;;25.40;15.45;;;;;;;5.58;92.81;96408.08;1720874;82;21027;-56
2022/01/05 09:37:32;;;;;;;37.95;23.20;;;;;;;5.60;92.78;96397.84;1723836;82;21015;-56
2022/01/05 09:42:26;;;;;;;44.00;25.20;;;;;;;5.61;92.97;96399.98;1716650;82;21017;-56
2022/01/05 09:44:53;;;;;;;51.35;27.30;;;;;;;5.57;93.01;96400.31;1714330;82;21071;-57
2022/01/05 09:48:02;;;;;;;44.95;26.00;;;;;;;5.51;93.65;96399.55;1716515;82;21018;-56
2022/01/05 09:50:29;;;;;;;42.55;24.70;;;;;;;5.46;93.82;96385.38;1715643;82;21011;-56
2022/01/05 09:52:56;;;;;;;33.67;21.33;;;;;;;5.50;93.36;96387.76;1689237;82;21385;-57
2022/01/05 09:55:23;;;;;;;47.62;30.80;;;;;;;5.50;93.10;96391.79;1711021;82;21028;-57
2022/01/05 09:57:50;;;;;;;46.28;29.20;;;;;;;5.49;94.17;96388.30;1708746;82;21438;-57
2022/01/05 10:00:17;;;;;;;52.83;31.00;;;;;;;5.51;94.10;96400.90;1721421;82;21485;-56
2022/01/05 10:02:45;;;;;;;55.67;35.83;;;;;;;5.53;94.56;96401.41;1721709;82;21076;-57
2022/01/05 10:05:13;;;;;;;51.40;27.33;;;;;;;5.55;94.15;96403.80;1703991;82;21402;-56
2022/01/05 10:07:41;;;;;;;41.53;20.80;;;;;;;5.53;93.67;96396.03;1714862;82;21052;-57
2022/01/05 10:10:09;;;;;;;24.85;13.05;;;;;;;5.54;93.75;96396.83;1711364;82;21019;-56
2022/01/05 10:12:36;;;;;;;33.25;15.18;;;;;;;5.56;93.49;96381.25;1714996;82;21008;-57
2022/01/05 10:15:04;;;;;;;32.75;21.17;;;;;;;5.54;93.21;96376.67;1712222;82;21088;-57
2022/01/05 10:17:37;;;;;;;38.78;21.52;;;;;;;5.52;93.73;96374.83;1728439;82;21629;-56
2022/01/05 10:20:07;;;;;;;29.15;18.05;;;;;;;5.52;94.25;96376.17;1725663;82;21044;-56
2022/01/05 10:22:37;;;;;;;23.95;15.28;;;;;;;5.57;94.01;96380.16;1725734;82;20897;-56
2022/01/05 10:25:21;;;;;;;22.95;16.50;;;;;;;5.63;93.95;96383.02;1709734;82;21578;-56
2022/01/05 10:28:00;;;;;;;23.90;16.27;;;;;;;5.66;93.73;96375.74;1716797;82;21008;-57
2022/01/05 10:30:41;;;;;;;30.85;19.95;;;;;;;5.68;93.90;96380.28;1707861;82;21992;-56
2022/01/05 10:33:08;;;;;;;30.52;22.60;;;;;;;5.60;94.52;96383.05;1706740;82;21491;-56
2022/01/05 10:35:35;;;;;;;27.17;20.23;;;;;;;5.53;94.66;96377.77;1717224;82;21485;-56
2022/01/05 10:38:09;;;;;;;30.65;17.25;;;;;;;5.57;94.36;96384.98;1701797;82;21056;-57
2022/01/05 10:40:38;;;;;;;35.17;24.52;;;;;;;5.66;94.07;96394.55;1721131;82;21441;-56
2022/01/05 10:43:12;;;;;;;21.60;11.53;;;;;;;5.67;94.51;96402.87;1715734;82;21435;-56
2022/01/05 10:45:43;;;;;;;21.27;12.60;;;;;;;5.70;93.84;96400.94;1729688;82;21032;-56
2022/01/05 10:48:15;;;;;;;23.15;14.25;;;;;;;5.78;93.78;96406.23;1722263;80;20885;-56
2022/01/05 10:50:42;;;;;;;16.48;10.63;;;;;;;5.81;94.23;96389.00;1720575;82;21000;-56
2022/01/05 10:53:13;;;;;;;14.65;8.83;;;;;;;5.86;93.67;96392.15;1714852;82;20965;-56
2022/01/05 10:55:43;;;;;;;38.15;21.62;;;;;;;5.87;93.84;96394.55;1681149;82;20969;-55
2022/01/05 10:58:18;;;;;;;35.25;16.80;;;;;;;5.91;93.31;96391.58;1716771;82;20976;-56
2022/01/05 11:00:52;;;;;;;14.85;9.45;;;;;;;5.90;93.25;96384.61;1718032;82;21005;-57
2022/01/05 11:03:38;;;;;;;20.88;12.73;;;;;;;5.99;93.29;96379.92;1715280;82;21011;-57
2022/01/05 11:06:10;;;;;;;13.35;8.28;;;;;;;6.13;92.95;96366.00;1724761;82;21072;-56
2022/01/05 11:09:05;;;;;;;22.30;12.73;;;;;;;6.16;92.57;96359.51;1720262;82;20999;-56
2022/01/05 11:11:39;;;;;;;17.05;11.97;;;;;;;6.15;92.55;96359.77;1722764;82;21024;-56
2022/01/05 11:14:30;;;;;;;12.55;8.85;;;;;;;6.19;92.57;96361.60;1719142;82;21040;-56
2022/01/05 11:17:00;;;;;;;21.65;11.45;;;;;;;6.17;92.17;96358.41;1723763;82;21032;-56
2022/01/05 11:19:33;;;;;;;24.18;15.38;;;;;;;6.19;91.25;96356.77;1719837;82;21027;-56
2022/01/05 11:22:09;;;;;;;19.02;9.80;;;;;;;6.36;91.77;96354.91;1724361;82;21609;-56
2022/01/05 11:24:53;;;;;;;19.17;10.30;;;;;;;6.43;90.49;96355.34;1718202;82;21013;-56
2022/01/05 11:27:27;;;;;;;14.10;8.13;;;;;;;6.55;91.21;96350.29;1718089;82;21071;-56
2022/01/05 11:29:55;;;;;;;11.10;6.40;;;;;;;6.61;89.23;96342.94;1716812;82;21000;-56
2022/01/05 11:32:27;;;;;;;8.70;5.00;;;;;;;6.71;89.91;96346.80;1717848;82;21468;-56
2022/01/05 11:34:54;;;;;;;11.30;6.65;;;;;;;6.78;90.15;96352.61;1723172;82;21044;-56
2022/01/05 11:37:21;;;;;;;19.45;10.82;;;;;;;6.79;89.89;96357.69;1719062;82;21025;-56
2022/01/05 11:39:52;;;;;;;56.28;23.65;;;;;;;6.82;90.14;96356.84;1722929;82;21908;-56